Time;durP1;ratioP1;P1;durP2;ratioP2;P2;SDS_P1;SDS_P2;PMS_P1;PMS_P2;Temp;Humidity;BMP_temperature;BMP_pressure;BME280_temperature;BME280_humidity;BME280_pressure;Samples;Min_cycle;Max_cycle;Signal;HPM_P1;HPM_P2
2024/04/02 00:01:05;;;;;;;1.27;1.10;;;12.30;61.70;13.90;99945.00;;;;5022852;28;20228;-77
2024/04/02 00:03:31;;;;;;;3.08;1.20;;;12.30;61.70;13.90;99957.00;;;;5010683;28;20193;-76
2024/04/02 00:05:59;;;;;;;1.50;1.33;;;12.30;61.70;13.90;99960.00;;;;5011716;28;20197;-77
2024/04/02 00:08:26;;;;;;;2.90;1.50;;;12.30;61.80;13.90;99953.00;;;;5021356;28;20701;-78
2024/04/02 00:10:53;;;;;;;2.92;1.52;;;12.30;61.80;13.90;99968.00;;;;5017577;28;20200;-77
2024/04/02 00:13:20;;;;;;;1.73;0.80;;;12.30;61.90;13.80;99961.00;;;;5010860;28;20201;-77
2024/04/02 00:15:49;;;;;;;1.52;1.02;;;12.20;61.80;13.80;99964.00;;;;5011079;28;20288;-78
2024/04/02 00:18:15;;;;;;;1.52;1.00;;;12.20;61.80;13.80;99960.00;;;;5011450;28;20207;-77
2024/04/02 00:20:43;;;;;;;2.53;1.30;;;12.20;61.80;13.80;99964.00;;;;5010637;28;20221;-77
2024/04/02 00:23:10;;;;;;;1.75;1.40;;;12.20;61.90;13.70;99971.00;;;;5010360;28;20215;-77
2024/04/02 00:25:37;;;;;;;1.60;1.13;;;12.20;61.90;13.70;99969.00;;;;5011121;28;20212;-77
2024/04/02 00:28:04;;;;;;;4.45;1.50;;;12.10;61.90;13.70;99966.00;;;;5010468;28;20522;-77
2024/04/02 00:30:33;;;;;;;1.20;0.70;;;12.10;62.00;13.70;99969.00;;;;5010736;28;22499;-78
2024/04/02 00:33:01;;;;;;;1.70;1.10;;;12.10;62.10;13.70;99978.00;;;;5012478;28;20215;-77
2024/04/02 00:35:28;;;;;;;3.88;1.20;;;12.10;62.10;13.60;99979.00;;;;5012785;28;20201;-77
2024/04/02 00:37:54;;;;;;;2.03;1.08;;;12.00;62.10;13.70;99975.00;;;;5013505;28;20205;-77
2024/04/02 00:40:21;;;;;;;0.95;0.85;;;12.00;62.10;13.60;99973.00;;;;5026434;28;20227;-78
2024/04/02 00:42:48;;;;;;;2.05;1.15;;;12.00;62.20;13.60;99972.00;;;;5026440;28;20663;-77
2024/04/02 00:45:15;;;;;;;1.67;1.00;;;12.00;62.20;13.60;99972.00;;;;5011660;28;20200;-78
2024/04/02 00:47:42;;;;;;;2.95;1.40;;;12.00;62.20;13.60;99978.00;;;;5009826;28;20228;-77
2024/04/02 00:50:11;;;;;;;1.75;0.90;;;12.00;62.20;13.50;99975.00;;;;5007546;28;20201;-77
2024/04/02 00:52:39;;;;;;;1.50;1.15;;;11.90;62.20;13.50;99979.00;;;;5013312;28;20250;-77
2024/04/02 00:55:07;;;;;;;1.25;0.98;;;11.90;62.30;13.50;99974.00;;;;5009813;28;20200;-77
2024/04/02 00:57:34;;;;;;;1.30;0.88;;;11.90;62.30;13.50;99983.00;;;;5009843;28;20237;-77
2024/04/02 01:00:01;;;;;;;1.83;0.90;;;11.90;62.40;13.50;99983.00;;;;5010725;28;20207;-77
2024/04/02 01:02:27;;;;;;;1.95;0.90;;;11.80;62.30;13.50;99983.00;;;;5002523;28;20209;-77
2024/04/02 01:04:55;;;;;;;1.58;0.95;;;11.80;63.10;13.40;99986.00;;;;5010756;28;20279;-77
2024/04/02 01:07:22;;;;;;;1.63;0.90;;;11.80;62.40;13.40;99986.00;;;;5006065;28;20223;-77
2024/04/02 01:09:49;;;;;;;1.00;0.80;;;11.80;62.40;13.40;99991.00;;;;5008413;28;20209;-76
2024/04/02 01:12:16;;;;;;;1.33;1.02;;;11.80;62.40;13.40;99994.00;;;;5006289;28;20270;-76
2024/04/02 01:14:44;;;;;;;1.85;1.10;;;11.70;62.40;13.40;100002.00;;;;4991316;28;20212;-76
2024/04/02 01:17:12;;;;;;;2.22;1.25;;;11.70;62.40;13.40;100008.00;;;;5009908;28;20204;-77
2024/04/02 01:19:38;;;;;;;3.10;0.88;;;11.70;62.40;13.40;99999.00;;;;5010753;28;20197;-77
2024/04/02 01:22:06;;;;;;;1.55;1.13;;;11.70;62.40;13.30;100015.00;;;;5006534;28;20205;-76
2024/04/02 01:24:34;;;;;;;1.63;0.93;;;11.70;62.40;13.30;100010.00;;;;5004860;28;20417;-77
2024/04/02 01:27:03;;;;;;;2.72;1.17;;;11.60;62.50;13.20;100008.00;;;;5011077;28;20741;-77
2024/04/02 01:29:29;;;;;;;1.13;0.82;;;11.60;62.50;13.30;100009.00;;;;5000726;28;20208;-77
2024/04/02 01:31:56;;;;;;;0.98;0.82;;;11.60;62.50;13.20;100009.00;;;;5008861;28;20193;-77
2024/04/02 01:34:23;;;;;;;3.65;0.77;;;11.60;62.50;13.20;100012.00;;;;5012215;28;20204;-77
2024/04/02 01:36:50;;;;;;;1.98;1.10;;;11.60;62.50;13.20;100013.00;;;;5012430;28;20191;-77
2024/04/02 01:39:18;;;;;;;3.63;1.10;;;11.50;62.50;13.20;100012.00;;;;5003000;28;20251;-77
2024/04/02 01:41:45;;;;;;;1.50;1.00;;;11.50;62.60;13.10;100006.00;;;;5014561;28;20251;-77
2024/04/02 01:44:12;;;;;;;2.30;1.15;;;11.50;62.70;13.10;100009.00;;;;5012850;28;20658;-77
2024/04/02 01:46:40;;;;;;;1.23;0.80;;;11.40;62.70;13.10;100005.00;;;;5014296;28;20287;-77
2024/04/02 01:49:06;;;;;;;1.00;0.90;;;11.40;62.70;13.10;100005.00;;;;5021139;28;20212;-77
2024/04/02 01:51:33;;;;;;;1.48;1.10;;;11.40;62.80;13.00;100003.00;;;;5014510;28;20232;-77
2024/04/02 01:53:59;;;;;;;1.77;0.90;;;11.40;62.80;13.00;100008.00;;;;5018290;28;20203;-77
2024/04/02 01:56:26;;;;;;;0.80;0.73;;;11.40;62.80;13.00;100004.00;;;;5020504;28;20206;-76
2024/04/02 01:58:52;;;;;;;2.10;1.10;;;11.30;62.80;13.00;100011.00;;;;5026948;28;20196;-76
2024/04/02 02:01:20;;;;;;;1.90;0.98;;;11.30;62.90;13.00;100013.00;;;;5018114;28;20229;-78
2024/04/02 02:03:46;;;;;;;1.67;1.00;;;11.30;62.90;13.00;100013.00;;;;5017959;28;20248;-78
2024/04/02 02:06:13;;;;;;;2.08;1.00;;;11.30;63.00;12.90;100020.00;;;;5019904;28;20251;-77
2024/04/02 02:08:40;;;;;;;1.15;0.85;;;11.30;63.10;12.90;100016.00;;;;5014199;28;20217;-77
2024/04/02 02:11:07;;;;;;;1.05;0.95;;;11.20;63.00;12.90;100018.00;;;;5029324;28;20734;-77
2024/04/02 02:13:35;;;;;;;1.15;0.70;;;11.20;63.10;12.90;100018.00;;;;5016056;28;20200;-77
2024/04/02 02:16:03;;;;;;;1.50;0.90;;;11.20;63.10;12.90;100020.00;;;;5014284;28;20236;-76
2024/04/02 02:18:31;;;;;;;1.30;1.08;;;11.20;63.20;12.80;100019.00;;;;5019760;28;20203;-78
2024/04/02 02:20:59;;;;;;;1.60;0.75;;;11.20;63.90;12.80;100025.00;;;;5014427;28;20602;-77
2024/04/02 02:23:26;;;;;;;1.13;0.85;;;11.10;63.20;12.80;100016.00;;;;5017433;28;20197;-78
2024/04/02 02:25:54;;;;;;;2.67;0.98;;;11.10;63.30;12.80;100013.00;;;;5022752;28;20217;-77
2024/04/02 02:28:20;;;;;;;2.50;0.95;;;11.10;63.40;12.80;100019.00;;;;5012763;28;20231;-78
2024/04/02 02:30:47;;;;;;;1.55;1.05;;;11.10;64.10;12.80;100021.00;;;;5023322;28;20213;-78
2024/04/02 02:33:13;;;;;;;1.20;0.80;;;11.10;63.40;12.80;100027.00;;;;5014977;28;20197;-78
2024/04/02 02:35:42;;;;;;;2.45;0.95;;;11.10;63.40;12.80;100024.00;;;;5014699;28;20205;-76
2024/04/02 02:38:08;;;;;;;2.08;0.93;;;11.10;63.40;12.70;100023.00;;;;5004972;28;20653;-77
2024/04/02 02:40:35;;;;;;;1.20;0.80;;;11.10;63.40;12.70;100022.00;;;;5021397;28;20192;-77
2024/04/02 02:43:01;;;;;;;1.10;0.90;;;11.00;63.50;12.70;100024.00;;;;5033356;28;20207;-78
2024/04/02 02:45:28;;;;;;;1.48;1.00;;;11.10;63.50;12.70;100034.00;;;;5032728;28;20674;-77
2024/04/02 02:47:54;;;;;;;3.45;1.17;;;11.00;63.50;12.70;100030.00;;;;5014502;28;20224;-78
2024/04/02 02:50:21;;;;;;;1.13;0.85;;;11.00;63.60;12.70;100040.00;;;;5019096;28;20189;-77
2024/04/02 02:52:49;;;;;;;1.40;0.90;;;11.00;63.60;12.70;100037.00;;;;5019226;28;20583;-78
2024/04/02 02:55:17;;;;;;;1.42;0.80;;;11.00;64.30;12.70;100041.00;;;;5015366;28;20695;-78
2024/04/02 02:57:44;;;;;;;1.02;0.90;;;11.00;63.60;12.70;100043.00;;;;5014002;28;20208;-78
2024/04/02 03:00:12;;;;;;;1.85;1.20;;;11.00;63.70;12.70;100051.00;;;;5027582;28;20282;-77
2024/04/02 03:02:38;;;;;;;1.05;0.73;;;11.00;63.70;12.70;100052.00;;;;5022519;28;20687;-78
2024/04/02 03:05:06;;;;;;;1.55;0.85;;;11.00;64.30;12.60;100055.00;;;;5012667;28;20659;-78
2024/04/02 03:07:32;;;;;;;1.30;1.05;;;10.90;63.70;12.60;100066.00;;;;5009979;28;20205;-77
2024/04/02 03:10:00;;;;;;;2.88;1.25;;;10.90;63.70;12.60;100051.00;;;;5022247;28;20201;-79
2024/04/02 03:12:26;;;;;;;1.45;0.90;;;10.90;63.70;12.60;100058.00;;;;5013763;28;20704;-77
2024/04/02 03:14:53;;;;;;;1.08;0.77;;;10.90;63.70;12.60;100050.00;;;;5013002;28;20197;-78
2024/04/02 03:17:19;;;;;;;1.30;0.90;;;10.90;63.80;12.60;100063.00;;;;5010435;28;20221;-78
2024/04/02 03:19:46;;;;;;;2.05;0.93;;;10.90;63.90;12.60;100059.00;;;;5025377;28;20201;-78
2024/04/02 03:22:13;;;;;;;1.50;0.73;;;10.90;63.90;12.60;100067.00;;;;5011828;28;20659;-78
2024/04/02 03:24:41;;;;;;;1.77;1.00;;;10.80;63.90;12.60;100068.00;;;;5013331;28;20610;-78
2024/04/02 03:27:10;;;;;;;4.45;1.02;;;10.80;64.00;12.50;100067.00;;;;5012715;28;20228;-77
2024/04/02 03:29:37;;;;;;;1.25;0.95;;;10.80;64.00;12.50;100076.00;;;;5009931;28;20245;-77
2024/04/02 03:32:04;;;;;;;1.45;1.15;;;10.90;64.10;12.50;100078.00;;;;5025685;28;20641;-78
2024/04/02 03:34:31;;;;;;;0.82;0.70;;;10.80;64.20;12.50;100079.00;;;;5018477;28;20193;-77
2024/04/02 03:36:58;;;;;;;1.77;0.90;;;10.90;64.30;12.50;100076.00;;;;5013137;28;20201;-77
2024/04/02 03:39:25;;;;;;;1.85;0.98;;;10.80;64.30;12.50;100084.00;;;;5011937;28;20569;-78
2024/04/02 03:41:52;;;;;;;2.35;0.85;;;10.80;64.30;12.50;100087.00;;;;5010592;28;20193;-77
2024/04/02 03:44:21;;;;;;;1.20;0.90;;;10.90;64.40;12.50;100091.00;;;;5017639;28;20711;-78
2024/04/02 03:46:47;;;;;;;1.73;0.80;;;10.80;64.40;12.50;100086.00;;;;5000663;28;20202;-78
2024/04/02 03:49:14;;;;;;;1.38;0.82;;;10.80;64.40;12.50;100085.00;;;;4995670;28;20641;-78
2024/04/02 03:51:40;;;;;;;0.90;0.70;;;10.80;64.50;12.50;100092.00;;;;5008867;28;20196;-78
2024/04/02 03:54:07;;;;;;;0.85;0.73;;;10.80;64.50;12.50;100090.00;;;;5011205;28;20213;-78
2024/04/02 03:56:34;;;;;;;3.67;0.75;;;10.80;64.60;12.50;100101.00;;;;5020275;28;20200;-77
2024/04/02 03:59:01;;;;;;;1.05;0.88;;;10.80;65.30;12.50;100106.00;;;;5019608;28;20197;-77
2024/04/02 04:01:29;;;;;;;1.52;1.13;;;10.80;64.50;12.50;100099.00;;;;5008940;28;20233;-78
2024/04/02 04:03:56;;;;;;;1.38;0.98;;;10.90;64.70;12.50;100096.00;;;;5026204;28;20649;-78
2024/04/02 04:06:22;;;;;;;6.80;2.28;;;10.90;64.70;12.50;100100.00;;;;5026335;28;20197;-78
2024/04/02 04:08:49;;;;;;;1.50;0.90;;;10.90;64.70;12.50;100097.00;;;;5010738;28;20248;-78
2024/04/02 04:11:15;;;;;;;1.25;1.02;;;10.90;64.70;12.50;100105.00;;;;5010828;28;20197;-77
2024/04/02 04:13:42;;;;;;;1.48;0.90;;;10.90;64.70;12.50;100108.00;;;;5011035;28;20754;-77
2024/04/02 04:16:08;;;;;;;1.25;0.90;;;10.90;64.70;12.50;100113.00;;;;5009640;28;20206;-77
2024/04/02 04:18:36;;;;;;;1.77;1.02;;;10.90;65.40;12.50;100113.00;;;;5011351;28;20255;-78
2024/04/02 04:21:04;;;;;;;1.90;1.13;;;10.90;64.70;12.50;100116.00;;;;5018110;28;20705;-77
2024/04/02 04:23:31;;;;;;;1.95;0.98;;;10.90;64.70;12.60;100117.00;;;;5012342;28;20284;-78
2024/04/02 04:25:58;;;;;;;1.70;1.10;;;10.90;65.00;12.60;100116.00;;;;5014135;28;20726;-77
2024/04/02 04:28:27;;;;;;;2.38;0.90;;;10.90;65.00;12.60;100116.00;;;;5020204;28;20689;-78
2024/04/02 04:30:54;;;;;;;1.05;0.80;;;10.90;65.10;12.60;100121.00;;;;5018518;28;20669;-78
2024/04/02 04:33:22;;;;;;;1.98;1.00;;;10.90;65.20;12.60;100119.00;;;;5015064;28;20571;-78
2024/04/02 04:35:49;;;;;;;1.80;1.10;;;10.90;65.20;12.60;100124.00;;;;5021124;28;20204;-78
2024/04/02 04:38:17;;;;;;;1.50;0.80;;;10.90;65.30;12.60;100128.00;;;;5000170;28;20193;-77
2024/04/02 04:40:44;;;;;;;2.13;1.00;;;11.00;65.40;12.70;100134.00;;;;5010691;28;20259;-78
2024/04/02 04:43:14;;;;;;;2.65;0.77;;;11.00;65.40;12.60;100142.00;;;;5010732;28;20201;-78
2024/04/02 04:45:40;;;;;;;2.78;0.93;;;11.00;65.40;12.70;100138.00;;;;5004013;28;20216;-78
2024/04/02 04:48:08;;;;;;;1.63;1.02;;;11.00;65.40;12.70;100139.00;;;;4998589;28;20225;-78
2024/04/02 04:50:35;;;;;;;2.45;0.95;;;11.10;65.50;12.80;100147.00;;;;5000821;28;20197;-78
2024/04/02 04:53:03;;;;;;;1.50;1.00;;;11.10;65.50;12.70;100145.00;;;;5011735;28;22198;-78
2024/04/02 04:55:30;;;;;;;2.40;1.35;;;11.10;65.50;12.80;100147.00;;;;5008336;28;20199;-78
2024/04/02 04:57:57;;;;;;;2.90;0.98;;;11.10;65.50;12.80;100150.00;;;;5011306;28;20247;-78
2024/04/02 05:00:24;;;;;;;2.25;1.10;;;11.10;65.50;12.80;100145.00;;;;5005383;28;20208;-77
2024/04/02 05:02:51;;;;;;;2.22;1.00;;;11.20;65.60;12.90;100150.00;;;;5002184;28;20224;-77
2024/04/02 05:05:17;;;;;;;1.60;1.00;;;11.20;65.70;12.90;100149.00;;;;5007925;28;20212;-78
2024/04/02 05:08:23;;;;;;;1.45;1.02;;;11.20;65.70;12.90;100155.00;;;;5017019;28;20258;-77
2024/04/02 05:10:50;;;;;;;1.08;0.90;;;11.30;66.00;13.00;100160.00;;;;5009792;28;20207;-78
2024/04/02 05:13:18;;;;;;;3.88;1.17;;;11.30;65.80;13.00;100166.00;;;;5018253;28;20208;-78
2024/04/02 05:15:44;;;;;;;1.73;0.85;;;11.30;65.80;13.10;100160.00;;;;5015974;28;20200;-77
2024/04/02 05:18:13;;;;;;;1.98;1.13;;;11.40;65.80;13.10;100160.00;;;;5027162;28;20243;-78
2024/04/02 05:20:39;;;;;;;3.40;1.30;;;11.50;65.90;13.20;100167.00;;;;5013948;28;20211;-78
2024/04/02 05:23:07;;;;;;;2.08;1.10;;;11.50;65.90;13.20;100172.00;;;;5014615;28;20247;-78
2024/04/02 05:25:34;;;;;;;1.40;0.95;;;11.50;65.90;13.20;100166.00;;;;5025924;28;20283;-79
2024/04/02 05:28:01;;;;;;;1.67;1.13;;;11.60;65.80;13.30;100167.00;;;;5019647;28;20646;-77
2024/04/02 05:30:28;;;;;;;1.55;0.50;;;11.60;65.70;13.30;100167.00;;;;5014651;28;20272;-75
2024/04/02 05:32:55;;;;;;;1.50;0.93;;;11.60;65.70;13.30;100169.00;;;;5015893;28;20255;-76
2024/04/02 05:35:22;;;;;;;1.88;1.02;;;11.60;65.70;13.40;100172.00;;;;5014230;28;20284;-76
2024/04/02 05:37:51;;;;;;;3.95;1.10;;;11.70;65.70;13.40;100177.00;;;;5012550;28;20351;-77
2024/04/02 05:40:18;;;;;;;1.70;1.20;;;11.70;65.60;13.40;100185.00;;;;5003457;28;20271;-76
2024/04/02 05:42:47;;;;;;;1.77;1.10;;;11.70;65.70;13.50;100184.00;;;;5022107;28;20288;-78
2024/04/02 05:45:14;;;;;;;1.80;0.70;;;11.70;66.40;13.50;100185.00;;;;5015975;28;20209;-77
2024/04/02 05:47:42;;;;;;;2.45;1.00;;;11.80;65.70;13.50;100191.00;;;;5012923;28;20205;-76
2024/04/02 05:50:09;;;;;;;2.90;1.05;;;11.80;65.70;13.60;100191.00;;;;5011291;28;20225;-76
2024/04/02 05:52:36;;;;;;;1.63;0.70;;;11.90;65.70;13.60;100199.00;;;;5014824;28;20247;-76
2024/04/02 05:55:02;;;;;;;3.25;1.40;;;11.90;65.70;13.60;100195.00;;;;5009944;28;20236;-75
2024/04/02 05:57:29;;;;;;;2.72;0.90;;;11.90;65.70;13.70;100198.00;;;;5009287;28;20197;-76
2024/04/02 05:59:57;;;;;;;3.13;1.80;;;12.00;65.80;13.70;100199.00;;;;5016369;28;20219;-74
2024/04/02 06:02:24;;;;;;;1.55;1.08;;;12.00;65.80;13.80;100203.00;;;;5014103;28;20407;-74
2024/04/02 06:04:50;;;;;;;1.30;1.10;;;12.10;66.50;13.80;100204.00;;;;5014694;28;20212;-76
2024/04/02 06:07:18;;;;;;;2.40;0.95;;;12.10;65.90;13.90;100199.00;;;;5014325;28;20197;-75
2024/04/02 06:09:44;;;;;;;1.52;0.85;;;12.20;66.00;14.00;100202.00;;;;5014445;28;20283;-76
2024/04/02 06:12:11;;;;;;;4.82;1.73;;;12.20;66.00;14.00;100211.00;;;;5014063;28;20244;-75
2024/04/02 06:14:38;;;;;;;3.63;1.67;;;12.20;66.70;14.00;100213.00;;;;5014878;28;20717;-76
2024/04/02 06:17:07;;;;;;;1.42;1.02;;;12.30;66.00;14.10;100213.00;;;;5014797;28;20201;-76
2024/04/02 06:19:33;;;;;;;3.03;1.40;;;12.40;65.90;14.10;100219.00;;;;5007670;28;20204;-76
2024/04/02 06:22:01;;;;;;;1.83;0.95;;;12.40;65.80;14.20;100222.00;;;;4994990;28;20644;-76
2024/04/02 06:24:27;;;;;;;2.35;0.88;;;12.40;65.80;14.20;100213.00;;;;5000960;28;20189;-76
2024/04/02 06:26:55;;;;;;;2.28;1.17;;;12.50;65.80;14.20;100225.00;;;;5013588;28;20291;-76
2024/04/02 06:29:21;;;;;;;1.92;1.17;;;12.50;65.70;14.30;100237.00;;;;5012788;28;20232;-76
2024/04/02 06:31:48;;;;;;;1.35;0.95;;;12.50;65.60;14.30;100230.00;;;;5014685;28;20671;-76
2024/04/02 06:34:15;;;;;;;1.17;0.90;;;12.60;65.70;14.30;100233.00;;;;5014797;28;20204;-76
2024/04/02 06:36:42;;;;;;;3.03;1.00;;;12.60;65.60;14.40;100230.00;;;;5014201;28;20232;-75
2024/04/02 06:39:08;;;;;;;1.45;1.08;;;12.70;65.70;14.40;100235.00;;;;5011626;28;20201;-76
2024/04/02 06:41:35;;;;;;;2.10;1.38;;;12.70;65.70;14.50;100238.00;;;;4994550;28;20198;-77
2024/04/02 06:44:02;;;;;;;4.93;1.00;;;12.80;65.80;14.50;100238.00;;;;4994183;28;20197;-76
2024/04/02 06:46:29;;;;;;;3.33;1.27;;;12.80;65.80;14.60;100234.00;;;;5002049;28;20292;-77
2024/04/02 06:48:57;;;;;;;2.50;1.00;;;12.80;65.80;14.60;100232.00;;;;5007263;28;20212;-75
2024/04/02 06:51:25;;;;;;;1.70;1.05;;;12.90;65.80;14.60;100236.00;;;;5015172;28;20208;-76
2024/04/02 06:53:53;;;;;;;4.38;1.10;;;12.90;65.80;14.70;100240.00;;;;5022625;28;20569;-76
2024/04/02 06:56:20;;;;;;;4.40;1.35;;;13.00;65.90;14.80;100244.00;;;;5014040;28;20205;-76
2024/04/02 06:58:46;;;;;;;4.22;1.52;;;13.00;65.80;14.80;100238.00;;;;5013905;28;20201;-76
2024/04/02 07:01:14;;;;;;;3.35;1.23;;;13.10;65.80;14.80;100243.00;;;;5013050;28;20225;-76
2024/04/02 07:03:40;;;;;;;2.17;1.35;;;13.10;65.70;14.90;100253.00;;;;5004175;28;20201;-77
2024/04/02 07:06:07;;;;;;;3.92;0.98;;;13.20;65.70;14.90;100249.00;;;;5014324;28;20634;-77
2024/04/02 07:08:34;;;;;;;5.20;1.50;;;13.20;65.60;14.90;100250.00;;;;5013507;28;20222;-77
2024/04/02 07:11:04;;;;;;;5.20;1.35;;;13.20;65.50;15.00;100244.00;;;;5012840;28;20659;-77
2024/04/02 07:13:30;;;;;;;3.58;1.40;;;13.30;65.60;15.00;100246.00;;;;5008620;28;20193;-77
2024/04/02 07:15:58;;;;;;;3.58;1.38;;;13.30;65.50;15.10;100262.00;;;;5013005;28;20205;-77
2024/04/02 07:18:25;;;;;;;3.75;1.20;;;13.40;65.50;15.10;100254.00;;;;5013228;28;20193;-77
2024/04/02 07:21:02;;;;;;;3.90;1.40;;;13.40;65.50;15.10;100259.00;;;;5012049;28;20658;-79
2024/04/02 07:23:28;;;;;;;3.28;1.30;;;13.40;65.50;15.20;100262.00;;;;5013709;28;20319;-78
2024/04/02 07:25:57;;;;;;;4.00;1.42;;;13.50;65.40;15.20;100260.00;;;;5013310;28;20282;-77
2024/04/02 07:28:24;;;;;;;3.38;1.40;;;13.50;65.40;15.30;100264.00;;;;5013252;28;20672;-79
2024/04/02 07:30:51;;;;;;;5.18;1.30;;;13.60;65.30;15.30;100255.00;;;;5012143;28;20204;-77
2024/04/02 07:33:17;;;;;;;2.63;1.38;;;13.60;65.20;15.40;100264.00;;;;5011797;28;20567;-78
2024/04/02 07:35:45;;;;;;;3.95;1.30;;;13.60;65.20;15.40;100266.00;;;;5013092;28;20197;-77
2024/04/02 07:38:12;;;;;;;5.38;2.03;;;13.70;65.20;15.40;100271.00;;;;5012228;28;20682;-78
2024/04/02 07:40:40;;;;;;;5.25;1.67;;;13.70;65.20;15.40;100277.00;;;;5018595;28;20206;-77
2024/04/02 07:43:07;;;;;;;5.40;1.80;;;13.80;65.20;15.50;100266.00;;;;5016940;28;20213;-78
2024/04/02 07:45:35;;;;;;;4.05;2.42;;;13.80;65.10;15.50;100272.00;;;;5003672;28;20201;-78
2024/04/02 07:48:01;;;;;;;7.38;1.58;;;13.80;65.10;15.60;100278.00;;;;5011102;28;20216;-77
2024/04/02 07:50:32;;;;;;;8.07;2.03;;;13.90;65.10;15.60;100272.00;;;;5012332;28;20225;-82
2024/04/02 07:52:59;;;;;;;3.92;2.05;;;13.90;65.10;15.60;100277.00;;;;5012822;28;20220;-82
2024/04/02 07:55:26;;;;;;;4.68;2.42;;;13.90;65.00;15.60;100266.00;;;;4995649;28;20209;-78
2024/04/02 07:57:52;;;;;;;4.57;2.10;;;14.00;64.90;15.70;100282.00;;;;5001459;28;20193;-78
2024/04/02 08:00:21;;;;;;;7.70;2.35;;;14.00;65.00;15.70;100276.00;;;;5011564;28;20193;-77
2024/04/02 08:02:47;;;;;;;3.95;2.00;;;14.10;65.80;15.80;100280.00;;;;5010629;28;20592;-78
2024/04/02 08:05:15;;;;;;;4.88;2.83;;;14.10;65.00;15.90;100288.00;;;;5010831;28;20193;-77
2024/04/02 08:07:41;;;;;;;8.30;2.85;;;14.10;65.00;15.90;100286.00;;;;5011907;28;20739;-76
2024/04/02 08:10:09;;;;;;;2.75;2.22;;;14.20;64.90;15.90;100287.00;;;;5004993;28;20228;-77
2024/04/02 08:12:35;;;;;;;5.90;2.30;;;14.20;64.80;16.00;100293.00;;;;4992879;28;20197;-79
2024/04/02 08:15:02;;;;;;;4.78;3.22;;;14.20;64.80;16.00;100296.00;;;;5004381;28;20288;-78
2024/04/02 08:17:29;;;;;;;5.65;3.28;;;14.30;64.70;16.00;100299.00;;;;5012263;28;20220;-77
2024/04/02 08:19:56;;;;;;;4.35;3.45;;;14.30;64.60;16.00;100296.00;;;;5012148;28;20256;-80
2024/04/02 08:22:23;;;;;;;6.25;3.22;;;14.30;64.60;16.10;100299.00;;;;5012411;28;20200;-78
2024/04/02 08:24:53;;;;;;;7.35;3.35;;;14.40;64.50;16.10;100302.00;;;;5012022;28;20207;-77
2024/04/02 08:27:19;;;;;;;6.05;3.10;;;14.40;64.50;16.10;100302.00;;;;5011303;28;20217;-79
2024/04/02 08:29:48;;;;;;;6.43;4.38;;;14.40;64.40;16.20;100305.00;;;;5009425;28;20620;-76
2024/04/02 08:32:14;;;;;;;8.25;4.25;;;14.50;64.40;16.20;100307.00;;;;5004255;28;20631;-79
2024/04/02 08:34:43;;;;;;;5.57;3.80;;;14.50;64.40;16.20;100316.00;;;;5011556;28;20286;-78
2024/04/02 08:37:09;;;;;;;10.68;3.95;;;14.50;64.30;16.20;100318.00;;;;5011996;28;20284;-80
2024/04/02 08:39:36;;;;;;;5.50;3.55;;;14.50;64.20;16.30;100333.00;;;;5011704;28;20216;-80
2024/04/02 08:42:04;;;;;;;5.53;3.40;;;14.60;64.30;16.30;100331.00;;;;5012244;28;20201;-77
2024/04/02 08:44:33;;;;;;;6.65;3.25;;;14.60;64.30;16.30;100325.00;;;;5011115;28;20197;-77
2024/04/02 08:47:00;;;;;;;6.13;3.35;;;14.60;64.30;16.40;100325.00;;;;4992926;28;20292;-78
2024/04/02 08:49:27;;;;;;;6.22;3.25;;;14.70;64.40;16.50;100322.00;;;;5017725;28;20326;-78
2024/04/02 08:51:55;;;;;;;4.88;3.30;;;14.70;64.40;16.50;100325.00;;;;5012266;28;20200;-78
2024/04/02 08:54:22;;;;;;;5.25;3.80;;;14.80;64.30;16.60;100336.00;;;;5011360;28;20666;-77
2024/04/02 08:56:48;;;;;;;5.53;3.30;;;14.90;64.30;16.70;100338.00;;;;5011944;28;20298;-76
2024/04/02 08:59:17;;;;;;;9.88;3.63;;;14.90;64.20;16.70;100334.00;;;;5011609;28;20203;-75
2024/04/02 09:01:45;;;;;;;5.03;3.22;;;15.00;64.20;16.80;100342.00;;;;5011211;28;20320;-78
2024/04/02 09:04:13;;;;;;;4.78;3.33;;;15.10;64.30;16.90;100334.00;;;;5012142;28;20270;-78
2024/04/02 09:06:39;;;;;;;5.47;2.88;;;15.10;63.90;17.00;100344.00;;;;5011146;28;20482;-79
2024/04/02 09:09:20;;;;;;;5.00;3.25;;;15.20;64.00;17.00;100335.00;;;;5011032;28;20225;-77
2024/04/02 09:11:46;;;;;;;7.22;3.03;;;15.30;63.70;17.00;100348.00;;;;5011657;28;20204;-79
2024/04/02 09:14:13;;;;;;;6.57;3.33;;;15.30;63.50;17.10;100340.00;;;;5011776;28;20299;-77
2024/04/02 09:16:39;;;;;;;5.15;3.05;;;15.40;63.50;17.20;100343.00;;;;4994158;28;20200;-76
2024/04/02 09:19:07;;;;;;;4.78;2.92;;;15.40;63.60;17.30;100346.00;;;;5001610;28;20201;-78
2024/04/02 09:21:33;;;;;;;5.85;3.08;;;15.50;63.70;17.40;100347.00;;;;5011375;28;20722;-77
2024/04/02 09:24:00;;;;;;;4.13;2.90;;;15.60;63.80;17.50;100344.00;;;;5027833;28;20626;-78
2024/04/02 09:26:28;;;;;;;4.00;2.45;;;15.70;63.90;17.70;100351.00;;;;5016729;28;20244;-82
2024/04/02 09:28:55;;;;;;;7.55;2.72;;;15.90;63.60;17.70;100351.00;;;;5010715;28;20200;-78
2024/04/02 09:31:21;;;;;;;6.72;2.78;;;15.90;63.00;17.70;100350.00;;;;5011257;28;20288;-80
2024/04/02 09:33:50;;;;;;;5.32;2.90;;;16.00;62.40;17.70;100338.00;;;;5011936;28;20193;-78
2024/04/02 09:36:40;;;;;;;2.95;2.13;;;16.10;62.20;17.70;100352.00;;;;5011143;28;20201;-80
2024/04/02 09:39:11;;;;;;;4.00;2.20;;;16.10;61.90;17.80;100345.00;;;;5011477;28;20209;-78
2024/04/02 09:41:41;;;;;;;4.35;2.47;;;16.20;61.80;17.80;100347.00;;;;5011593;28;20240;-81
2024/04/02 09:44:11;;;;;;;6.18;3.22;;;16.30;61.70;17.90;100347.00;;;;5011541;28;20201;-77
2024/04/02 09:46:40;;;;;;;4.80;2.00;;;16.20;61.30;17.90;100353.00;;;;5011776;28;20217;-79
2024/04/02 09:49:09;;;;;;;5.72;2.40;;;16.30;61.60;18.00;100355.00;;;;5009679;28;20197;-76
2024/04/02 09:51:35;;;;;;;6.72;2.33;;;16.30;61.50;18.00;100360.00;;;;5011804;28;20193;-76
2024/04/02 09:54:04;;;;;;;3.10;1.92;;;16.40;61.60;18.10;100358.00;;;;5011417;28;20247;-78
2024/04/02 09:56:32;;;;;;;5.25;2.30;;;16.50;61.60;18.10;100361.00;;;;5015742;28;20659;-78
2024/04/02 09:59:01;;;;;;;7.05;2.47;;;16.50;61.10;18.10;100368.00;;;;5016098;28;20213;-81
2024/04/02 10:01:32;;;;;;;9.48;2.45;;;16.50;60.80;18.10;100366.00;;;;5014765;28;20232;-79
2024/04/02 10:04:05;;;;;;;2.85;1.65;;;16.60;60.50;18.10;100373.00;;;;5015161;28;20204;-77
2024/04/02 10:06:34;;;;;;;5.97;2.63;;;16.50;60.50;18.10;100384.00;;;;5015069;28;20236;-79
2024/04/02 10:09:05;;;;;;;5.03;1.92;;;16.50;59.80;18.00;100381.00;;;;5014693;28;20243;-78
2024/04/02 10:11:36;;;;;;;4.70;1.95;;;16.50;59.80;17.90;100381.00;;;;5012513;28;20582;-77
2024/04/02 10:14:07;;;;;;;3.72;2.38;;;16.50;59.90;17.90;100384.00;;;;5015649;28;20205;-77
2024/04/02 10:16:34;;;;;;;7.82;2.42;;;16.40;59.90;17.90;100386.00;;;;5013647;28;20714;-78
2024/04/02 10:19:03;;;;;;;6.93;2.42;;;16.40;60.30;17.90;100376.00;;;;5014430;28;20263;-75
2024/04/02 10:21:31;;;;;;;3.30;2.03;;;16.30;60.60;17.90;100387.00;;;;5004671;28;20193;-77
2024/04/02 10:23:59;;;;;;;4.38;2.20;;;16.30;60.80;17.90;100388.00;;;;5014424;28;20207;-79
2024/04/02 10:26:31;;;;;;;2.78;2.20;;;16.30;61.10;17.90;100387.00;;;;5012270;28;20243;-78
2024/04/02 10:28:58;;;;;;;3.53;2.10;;;16.20;61.20;17.90;100390.00;;;;5013814;28;20212;-79
2024/04/02 10:31:37;;;;;;;4.45;2.42;;;16.30;61.20;17.70;100394.00;;;;5024809;28;20196;-77
2024/04/02 10:34:08;;;;;;;5.47;2.13;;;16.20;61.30;17.70;100388.00;;;;5033717;28;20245;-77
2024/04/02 10:36:35;;;;;;;3.90;1.70;;;16.20;61.50;17.70;100403.00;;;;5012240;28;20573;-78
2024/04/02 10:39:03;;;;;;;3.72;2.50;;;16.10;61.50;17.70;100391.00;;;;5013848;28;20580;-77
2024/04/02 10:41:30;;;;;;;3.97;2.15;;;16.10;61.70;17.70;100387.00;;;;4999699;28;20201;-77
2024/04/02 10:43:58;;;;;;;4.40;2.40;;;16.00;61.80;17.70;100387.00;;;;5013128;28;20197;-77
2024/04/02 10:46:28;;;;;;;4.40;1.85;;;16.00;62.00;17.60;100395.00;;;;5031019;28;20204;-77
2024/04/02 10:49:02;;;;;;;3.63;1.90;;;16.00;62.20;17.60;100394.00;;;;5017449;28;20201;-80